メインページ
METAR-TAF:

METAR-TAF

空港 :

サンフランシスコ, カリフォルニア州, アメリカ合衆国

サンフランシスコ国際空港

緯度: 37-37-11N, 経度: 122-21-53W, 海抜: 3m

現時点の気象観測

当レポートは1時間12分前の09:56(UTC)に作成
西/北西の風 7kt
気温 16°C
湿度 63%
気圧 1015 hPa
視程: 16.1km
晴天

METAR: KSFO 200956Z 30007KT 10SM CLR 16/09 A2997 RMK AO2 SLP149 T01610094

時間: 04:08 (11:08 UTC)

予報

当レポートは2時間3分前の09:05(UTC)に作成
予報は20日の 09時(UTC)から 21日の 12時(UTC)まで有効
西の風 10kt
視程: 10km
晴天
20日の 1000時(UTC)から
西の風 10kt
視程: 10km
高度1400ftの雲は散在している
高度15000ftの雲は散在している
20日の 13時(UTC)から 20日の 17時(UTC)まで一時的に
高度1400ftの千切れ雲あり
20日の 1800時(UTC)から
西の風 16kt
視程: 10km
高度1800ftの雲はほとんどない
20日の 2100時(UTC)から
西の風 18kt、最大24ktの突風を伴う
視程: 10km
高度2000ftの雲はほとんどない
高度15000ftの雲は散在している

TAF: KSFO 200905Z 2009/2112 27010KT P6SM SKC FM201000 28010KT P6SM SCT014 SCT150 TEMPO 2013/2017 BKN014 FM201800 27016KT P6SM FEW018 FM202100 27018G24KT P6SM FEW020 SCT150

4,000以上の空港の気象観測と天気予報(METAR報とTAF報)

利用可能な観測所は地図上に黄色い丸と赤い丸で示す。

丸の上にカーソルを重ねると観測所名を参照できる。

次にクリックすると気象観測と天気予報を参照できる。

マップの切り替え:黒色「×」印の緑ボタンをクリックして拡大、「-」印の緑ボタンをクリックして縮小、緑色の三角印をクリックして隣りの地図に切り替え


METAR-TAF: